createdAt,value
2022-11-07T00:02:05.474Z,12.65
2022-11-07T00:06:12.817Z,10.25
2022-11-07T00:10:16.338Z,13.13
2022-11-07T00:14:20.040Z,13.02
2022-11-07T00:18:23.453Z,10.55
2022-11-07T00:22:28.295Z,11.45
2022-11-07T00:26:31.855Z,16.88
2022-11-07T00:30:35.004Z,13.18
2022-11-07T00:34:38.823Z,13.93
2022-11-07T00:38:43.777Z,13.82
2022-11-07T00:42:47.691Z,9.77
2022-11-07T00:46:50.768Z,10.85
2022-11-07T00:50:54.486Z,17.15
2022-11-07T00:54:58.956Z,13.05
2022-11-07T00:59:02.704Z,12.30
2022-11-07T01:03:23.895Z,14.20
2022-11-07T01:07:27.362Z,11.70
2022-11-07T01:11:32.519Z,14.60
2022-11-07T01:15:35.774Z,10.73
2022-11-07T01:19:39.235Z,13.50
2022-11-07T01:23:42.990Z,13.00
2022-11-07T01:27:47.791Z,12.38
2022-11-07T01:31:51.491Z,9.25
2022-11-07T01:35:54.703Z,12.40
2022-11-07T01:39:58.211Z,12.95
2022-11-07T01:44:05.517Z,10.95
2022-11-07T01:48:09.019Z,15.88
2022-11-07T01:52:18.453Z,9.85
2022-11-07T01:56:26.075Z,12.57
2022-11-07T02:00:32.644Z,16.00
2022-11-07T02:04:37.070Z,17.35
2022-11-07T02:08:43.246Z,8.88
2022-11-07T02:12:46.560Z,9.98
2022-11-07T02:16:51.489Z,10.38
2022-11-07T02:20:57.778Z,12.15
2022-11-07T02:25:05.535Z,13.07
2022-11-07T02:29:11.008Z,14.52
2022-11-07T02:33:22.287Z,13.25
2022-11-07T02:37:31.782Z,12.88
2022-11-07T02:41:36.966Z,10.35
2022-11-07T02:45:44.023Z,11.80
2022-11-07T02:49:47.215Z,11.05
2022-11-07T02:53:50.711Z,15.88
2022-11-07T02:57:55.690Z,15.48
2022-11-07T03:01:58.824Z,14.18
2022-11-07T03:06:02.999Z,11.52
2022-11-07T03:10:07.056Z,10.93
2022-11-07T03:14:12.065Z,14.02
2022-11-07T03:18:15.661Z,16.75
2022-11-07T03:22:19.204Z,10.10
2022-11-07T03:26:22.937Z,13.75
2022-11-07T03:30:27.705Z,13.45
2022-11-07T03:34:31.558Z,12.43
2022-11-07T03:38:35.007Z,14.63
2022-11-07T03:42:41.435Z,17.35
2022-11-07T03:46:46.196Z,15.93
2022-11-07T03:50:49.165Z,12.73
2022-11-07T03:54:52.548Z,14.05
2022-11-07T03:58:56.210Z,11.55
2022-11-07T04:03:04.975Z,15.93
2022-11-07T04:07:08.480Z,11.18
2022-11-07T04:11:31.942Z,12.18
2022-11-07T04:15:52.626Z,10.55
2022-11-07T04:19:58.306Z,14.25
2022-11-07T04:24:03.317Z,10.13
2022-11-07T04:28:07.220Z,16.08
2022-11-07T04:32:10.156Z,15.10
2022-11-07T04:36:14.879Z,14.75
2022-11-07T04:40:19.529Z,16.70
2022-11-07T04:44:22.601Z,24.98
2022-11-07T04:48:25.650Z,24.20
2022-11-07T04:52:30.603Z,23.40
2022-11-07T04:56:35.700Z,13.20
2022-11-07T05:00:39.356Z,10.15
2022-11-07T05:04:43.012Z,15.18
2022-11-07T05:08:47.696Z,13.13
2022-11-07T05:12:51.770Z,11.27
2022-11-07T05:16:56.951Z,16.27
2022-11-07T05:21:00.737Z,12.52
2022-11-07T05:25:14.123Z,11.70
2022-11-07T05:29:17.175Z,14.25
2022-11-07T05:33:21.057Z,14.45
2022-11-07T05:37:24.208Z,10.98
2022-11-07T05:41:29.112Z,10.15
2022-11-07T05:45:33.498Z,8.63
2022-11-07T05:49:37.022Z,9.63
2022-11-07T05:53:40.300Z,11.25
2022-11-07T05:57:46.777Z,10.48
2022-11-07T06:01:51.490Z,9.00
2022-11-07T06:05:54.572Z,9.05
2022-11-07T06:09:58.484Z,11.77
2022-11-07T06:14:03.453Z,10.80
2022-11-07T06:18:08.772Z,16.98
2022-11-07T06:22:12.271Z,17.90
2022-11-07T06:26:15.585Z,13.25
2022-11-07T06:30:20.169Z,11.60
2022-11-07T06:34:23.226Z,12.15
2022-11-07T06:38:26.249Z,15.75
2022-11-07T06:42:29.351Z,15.10
2022-11-07T06:46:34.122Z,31.20
2022-11-07T06:50:37.718Z,13.45
2022-11-07T06:54:41.004Z,8.95
2022-11-07T06:58:44.302Z,11.50
2022-11-07T07:02:58.283Z,12.20
2022-11-07T07:07:01.978Z,13.80
2022-11-07T07:11:06.611Z,10.48
2022-11-07T07:15:10.748Z,11.35
2022-11-07T07:19:16.099Z,11.40
2022-11-07T07:23:21.438Z,9.02
2022-11-07T07:27:24.971Z,9.75
2022-11-07T07:31:32.349Z,24.63
2022-11-07T07:35:36.690Z,24.25
2022-11-07T07:39:40.186Z,13.80
2022-11-07T07:43:43.521Z,9.57
2022-11-07T07:47:47.130Z,9.68
2022-11-07T07:51:51.916Z,11.20
2022-11-07T07:55:58.374Z,11.80
2022-11-07T08:00:02.191Z,11.13
2022-11-07T08:04:05.289Z,11.15
2022-11-07T08:08:10.298Z,13.25
2022-11-07T08:12:15.548Z,12.90
2022-11-07T08:16:19.035Z,21.52
2022-11-07T08:20:25.265Z,14.02
2022-11-07T08:24:29.851Z,9.90
2022-11-07T08:28:36.467Z,11.05
2022-11-07T08:32:39.581Z,12.48
2022-11-07T08:36:42.965Z,10.93
2022-11-07T08:40:47.905Z,9.80
2022-11-07T08:44:51.206Z,9.32
2022-11-07T08:48:54.718Z,19.05
2022-11-07T08:53:02.958Z,8.43
2022-11-07T08:57:08.406Z,9.40
2022-11-07T09:01:12.348Z,7.40
2022-11-07T09:05:15.850Z,9.00
2022-11-07T09:09:19.444Z,5.22
2022-11-07T09:13:24.568Z,7.03
2022-11-07T09:17:29.240Z,6.93
2022-11-07T09:21:32.347Z,6.25
2022-11-07T09:25:37.181Z,6.82
2022-11-07T09:29:42.186Z,5.43
2022-11-07T09:33:45.659Z,5.93
2022-11-07T09:37:49.139Z,6.35
2022-11-07T09:42:01.053Z,6.75
2022-11-07T09:46:19.779Z,8.05
2022-11-07T09:50:31.087Z,7.15
2022-11-07T09:54:39.014Z,7.38
2022-11-07T09:58:45.013Z,6.68
2022-11-07T10:02:52.135Z,6.93
2022-11-07T10:07:01.987Z,6.10
2022-11-07T10:11:13.711Z,7.25
2022-11-07T10:15:26.330Z,5.15
2022-11-07T10:19:41.655Z,7.85
2022-11-07T10:24:01.897Z,7.60
2022-11-07T10:28:16.257Z,5.22
2022-11-07T10:32:25.015Z,4.88
2022-11-07T10:36:31.671Z,11.13
2022-11-07T10:40:39.902Z,6.13
2022-11-07T10:44:44.690Z,4.45
2022-11-07T10:48:56.848Z,4.68
2022-11-07T10:53:05.728Z,3.73
2022-11-07T10:57:14.476Z,6.72
2022-11-07T11:01:25.969Z,4.40
2022-11-07T11:05:34.502Z,3.17
2022-11-07T11:09:39.831Z,4.30
2022-11-07T11:13:43.394Z,2.22
2022-11-07T11:17:47.796Z,3.90
2022-11-07T11:21:53.492Z,3.78
2022-11-07T11:26:03.663Z,2.97
2022-11-07T11:30:09.161Z,2.60
2022-11-07T11:34:19.278Z,3.33
2022-11-07T11:38:26.197Z,4.50
2022-11-07T11:42:38.623Z,3.50
2022-11-07T11:46:48.091Z,5.03
2022-11-07T11:50:56.511Z,8.52
2022-11-07T11:55:02.052Z,2.65
2022-11-07T11:59:36.341Z,2.85
2022-11-07T12:03:59.483Z,3.70
2022-11-07T12:08:21.311Z,3.05
2022-11-07T12:12:31.279Z,3.13
2022-11-07T12:16:44.384Z,3.75
2022-11-07T12:20:57.221Z,2.67
2022-11-07T12:25:08.368Z,3.58
2022-11-07T12:29:25.699Z,1.83
2022-11-07T12:33:38.867Z,1.67
2022-11-07T12:38:03.848Z,1.98
2022-11-07T12:42:13.420Z,2.03
2022-11-07T12:46:27.489Z,3.80
2022-11-07T12:50:43.210Z,10.73
2022-11-07T12:54:51.585Z,2.83
2022-11-07T12:58:55.755Z,2.47
2022-11-07T13:03:20.112Z,2.97
2022-11-07T13:07:33.586Z,2.83
2022-11-07T13:11:44.469Z,2.17
2022-11-07T13:16:14.211Z,3.63
2022-11-07T13:20:27.280Z,3.47
2022-11-07T13:24:32.835Z,1.85
2022-11-07T13:28:41.421Z,2.33
2022-11-07T13:32:46.242Z,2.03
2022-11-07T13:36:51.080Z,3.63
2022-11-07T13:40:59.064Z,1.67
2022-11-07T13:45:17.763Z,2.45
2022-11-07T13:49:25.212Z,2.17
2022-11-07T13:53:36.129Z,2.88
2022-11-07T13:57:42.917Z,1.80
2022-11-07T14:01:47.423Z,2.97
2022-11-07T14:05:51.098Z,4.53
2022-11-07T14:09:58.932Z,7.57
2022-11-07T14:14:03.836Z,6.35
2022-11-07T14:18:08.428Z,3.50
2022-11-07T14:22:24.204Z,2.90
2022-11-07T14:26:30.913Z,2.00
2022-11-07T14:30:36.312Z,3.53
2022-11-07T14:34:46.608Z,3.35
2022-11-07T14:38:51.406Z,4.38
2022-11-07T14:42:57.829Z,2.33
2022-11-07T14:47:02.363Z,1.98
2022-11-07T14:51:06.113Z,7.28
2022-11-07T14:55:19.030Z,2.83
2022-11-07T15:03:35.186Z,1.80
2022-11-07T15:07:48.678Z,2.55
2022-11-07T15:11:59.063Z,6.65
2022-11-07T15:16:05.060Z,2.72
2022-11-07T15:20:22.320Z,3.83
2022-11-07T15:24:39.147Z,3.15
2022-11-07T15:28:47.517Z,3.55
2022-11-07T15:32:51.054Z,4.75
2022-11-07T15:36:56.289Z,4.07
2022-11-07T15:40:59.887Z,5.05
2022-11-07T15:45:02.926Z,4.78
2022-11-07T15:49:07.138Z,2.75
2022-11-07T15:53:18.180Z,14.85
2022-11-07T15:57:21.807Z,2.38
2022-11-07T16:01:25.065Z,3.53
2022-11-07T16:05:28.679Z,4.57
2022-11-07T16:09:34.722Z,5.53
2022-11-07T16:13:38.176Z,4.95
2022-11-07T16:17:42.050Z,2.70
2022-11-07T16:21:45.444Z,8.10
2022-11-07T16:25:52.749Z,16.80
2022-11-07T16:29:56.240Z,9.32
2022-11-07T16:33:59.376Z,7.05
2022-11-07T16:38:02.405Z,7.20
2022-11-07T16:42:07.594Z,25.58
2022-11-07T16:46:15.055Z,11.55
2022-11-07T16:50:19.065Z,5.25
2022-11-07T16:54:22.521Z,8.40
2022-11-07T16:58:31.327Z,6.22
2022-11-07T17:02:34.903Z,5.85
2022-11-07T17:06:39.412Z,4.28
2022-11-07T17:10:42.874Z,18.38
2022-11-07T17:14:47.451Z,16.05
2022-11-07T17:18:51.242Z,14.43
2022-11-07T17:22:54.472Z,6.43
2022-11-07T17:26:58.235Z,10.10
2022-11-07T17:31:02.804Z,11.77
2022-11-07T17:35:30.608Z,11.05
2022-11-07T17:39:30.107Z,8.30
2022-11-07T17:43:33.113Z,7.68
2022-11-07T17:47:38.360Z,5.97
2022-11-07T17:51:42.671Z,3.85
2022-11-07T17:55:47.011Z,5.00
2022-11-07T17:59:51.130Z,4.63
2022-11-07T18:03:57.019Z,7.53
2022-11-07T18:08:00.075Z,5.03
2022-11-07T18:12:03.504Z,8.40
2022-11-07T18:16:10.481Z,11.60
2022-11-07T18:20:15.421Z,9.52
2022-11-07T18:24:18.472Z,7.82
2022-11-07T18:28:22.201Z,7.68
2022-11-07T18:32:25.346Z,11.93
2022-11-07T18:36:33.659Z,13.50
2022-11-07T18:40:36.652Z,9.48
2022-11-07T18:44:40.034Z,12.55
2022-11-07T18:48:43.796Z,8.70
2022-11-07T18:52:49.713Z,9.57
2022-11-07T18:56:52.911Z,6.82
2022-11-07T19:00:56.948Z,7.28
2022-11-07T19:05:00.677Z,10.68
2022-11-07T19:09:05.802Z,7.85
2022-11-07T19:13:09.029Z,7.40
2022-11-07T19:17:12.574Z,12.13
2022-11-07T19:21:19.854Z,6.15
2022-11-07T19:25:24.482Z,7.55
2022-11-07T19:29:28.276Z,5.45
2022-11-07T19:33:31.508Z,5.18
2022-11-07T19:37:35.202Z,5.30
2022-11-07T19:41:39.831Z,8.68
2022-11-07T19:45:45.112Z,5.55
2022-11-07T19:49:48.612Z,5.60
2022-11-07T19:53:59.050Z,5.60
2022-11-07T19:58:04.544Z,5.75
2022-11-07T20:02:31.878Z,3.70
2022-11-07T20:06:36.589Z,5.18
2022-11-07T20:10:40.549Z,4.03
2022-11-07T20:14:45.290Z,2.30
2022-11-07T20:18:49.598Z,2.92
2022-11-07T20:22:53.022Z,5.95
2022-11-07T20:26:56.764Z,2.65
2022-11-07T20:31:01.280Z,14.60
2022-11-07T20:35:04.809Z,6.07
2022-11-07T20:39:08.739Z,9.07
2022-11-07T20:43:15.947Z,5.57
2022-11-07T20:47:21.923Z,1.92
2022-11-07T20:51:26.825Z,3.88
2022-11-07T20:55:30.476Z,3.00
2022-11-07T20:59:34.133Z,6.80
2022-11-07T21:03:39.620Z,6.75
2022-11-07T21:07:45.315Z,2.72
2022-11-07T21:11:48.521Z,5.18
2022-11-07T21:15:52.427Z,5.20
2022-11-07T21:19:57.396Z,3.67
2022-11-07T21:24:02.346Z,6.72
2022-11-07T21:28:08.557Z,8.15
2022-11-07T21:32:12.176Z,5.20
2022-11-07T21:36:19.341Z,5.25
2022-11-07T21:40:22.906Z,9.40
2022-11-07T21:44:26.238Z,6.60
2022-11-07T21:48:30.954Z,2.78
2022-11-07T21:52:35.507Z,3.53
2022-11-07T21:56:43.811Z,5.82
2022-11-07T22:00:48.026Z,3.75
2022-11-07T22:04:52.052Z,3.55
2022-11-07T22:08:56.514Z,20.15
2022-11-07T22:13:00.877Z,11.95
2022-11-07T22:17:04.931Z,6.60
2022-11-07T22:21:10.632Z,5.95
2022-11-07T22:25:15.776Z,8.57
2022-11-07T22:29:18.710Z,6.30
2022-11-07T22:33:21.759Z,8.75
2022-11-07T22:37:26.228Z,6.07
2022-11-07T22:41:31.166Z,5.93
2022-11-07T22:45:34.673Z,5.05
2022-11-07T22:49:38.228Z,6.07
2022-11-07T22:53:41.939Z,11.93
2022-11-07T23:01:47.167Z,3.45
2022-11-07T23:05:50.646Z,6.40
2022-11-07T23:09:59.480Z,5.68
2022-11-07T23:14:06.020Z,7.13
2022-11-07T23:18:11.006Z,4.88
2022-11-07T23:22:14.365Z,9.02
2022-11-07T23:26:19.354Z,4.43
2022-11-07T23:30:22.966Z,4.72
2022-11-07T23:34:27.717Z,7.10
2022-11-07T23:38:31.366Z,3.28
2022-11-07T23:42:34.860Z,9.13
2022-11-07T23:46:55.473Z,5.25
2022-11-07T23:51:05.153Z,5.25
2022-11-07T23:55:26.562Z,3.38
2022-11-07T23:59:47.233Z,3.55
